Etusivu
METAR-TAF:

METAR-TAF

Lentoasemat :

Cienfuegos, Kuuba

Leveyspiiri: 22-09N, Pituuspiiri: 080-24W, korkeus merenpinnasta: 39 m

Tämänhetkinen sää

Tämä raportti tehtiin 38 minuuttia sitten, kello 09.59 UTC
Tuuli 4 kn idästä/koillisesta
Lämpötila 21°C
Kosteus 100%
Ilmanpaine 1013 hPa

METAR: MUCF 130959Z AUTO 06004KT 21/21 Q1013

Aika: 05:37 (10:37 UTC)

Sääennuste

Tämä raportti tehtiin 17 tuntia ja 37 minuuttia sitten, kello 17.00 UTC
Ennuste voimassa 12. päivästä klo 18 UTC - 13. päivään klo 06 UTC
Tuuli 3 kn eri suunnista
Näkyvyys: 9000 m
Hajanaisia pilviä 2000 ft:n korkeudessa

TAF: MUCF 121700Z 1218/1306 VRB03KT 9000 SCT020

Säähavainnot ja -ennusteet yli 4000 lentoasemalta (METAR- ja TAF-raportit).

Käytössä olevat sääasemat on merkitty karttaan keltaisilla ja punaisilla pisteillä.

Aseta hiiri pisteen päälle nähdäksesi sääaseman nimen.

Klikkaa sitten nähdäksesi säähavainnot ja -ennusteet.

Kartan vaihtaminen: klikkaa mustalla rastilla varustettuja vihreitä pisteitä, niin voit zoomata sisään; viivalla varustettua vihreää pistettä, niin voit zoomata ulos tai vihreitä nuolia, niin pääset viereisille kartoille.


METAR-TAF: